createdAt,value
2023-04-15T00:00:04.138Z,984.93
2023-04-15T00:00:14.652Z,984.93
2023-04-15T00:00:25.149Z,984.93
2023-04-15T00:00:35.678Z,984.93
2023-04-15T00:00:46.169Z,984.92
2023-04-15T00:00:56.690Z,984.93
2023-04-15T00:01:07.262Z,984.93
2023-04-15T00:01:17.708Z,984.93
2023-04-15T00:01:28.209Z,984.93
2023-04-15T00:01:38.749Z,984.93
2023-04-15T00:01:49.348Z,984.93
2023-04-15T00:01:59.856Z,984.93
2023-04-15T00:02:10.462Z,984.93
2023-04-15T00:02:20.862Z,984.93
2023-04-15T00:02:31.337Z,984.93
2023-04-15T00:02:41.951Z,984.93
2023-04-15T00:02:52.507Z,984.94
2023-04-15T00:03:02.979Z,984.94
2023-04-15T00:03:13.464Z,984.93
2023-04-15T00:03:23.947Z,984.93
2023-04-15T00:03:34.652Z,984.93
2023-04-15T00:03:44.931Z,984.93
2023-04-15T00:03:55.476Z,984.94
2023-04-15T00:04:05.900Z,984.94
2023-04-15T00:04:16.571Z,984.93
2023-04-15T00:04:26.937Z,984.93
2023-04-15T00:04:37.398Z,984.93
2023-04-15T00:04:48.074Z,984.94
2023-04-15T00:04:58.385Z,984.93
2023-04-15T00:05:08.954Z,984.93
2023-04-15T00:05:19.416Z,984.93
2023-04-15T00:05:29.910Z,984.94
2023-04-15T00:05:40.528Z,984.93
2023-04-15T00:05:50.956Z,984.93
2023-04-15T00:06:01.444Z,984.93
2023-04-15T00:06:11.951Z,984.93
2023-04-15T00:06:22.454Z,984.93
2023-04-15T00:06:32.965Z,984.93
2023-04-15T00:06:43.506Z,984.93
2023-04-15T00:06:53.981Z,984.93
2023-04-15T00:07:04.488Z,984.92
2023-04-15T00:07:14.998Z,984.92
2023-04-15T00:07:25.513Z,984.92
2023-04-15T00:07:36.017Z,984.92
2023-04-15T00:07:46.518Z,984.93
2023-04-15T00:07:57.029Z,984.92
2023-04-15T00:08:07.534Z,984.92
2023-04-15T00:08:18.051Z,984.92
2023-04-15T00:08:28.572Z,984.91
2023-04-15T00:08:39.088Z,984.91
2023-04-15T00:08:49.576Z,984.91
2023-04-15T00:09:00.346Z,984.92
2023-04-15T00:09:10.576Z,984.92
2023-04-15T00:09:21.108Z,984.92
2023-04-15T00:09:31.594Z,984.92
2023-04-15T00:09:42.112Z,984.92
2023-04-15T00:09:52.614Z,984.92
2023-04-15T00:10:03.166Z,984.92
2023-04-15T00:10:13.628Z,984.92
2023-04-15T00:10:24.141Z,984.92
2023-04-15T00:10:34.640Z,984.92
2023-04-15T00:10:45.164Z,984.92
2023-04-15T00:10:55.662Z,984.91
2023-04-15T00:11:06.175Z,984.91
2023-04-15T00:11:16.679Z,984.91
2023-04-15T00:11:27.188Z,984.91
2023-04-15T00:11:37.694Z,984.91
2023-04-15T00:11:48.214Z,984.91
2023-04-15T00:11:58.714Z,984.91
2023-04-15T00:12:09.236Z,984.91
2023-04-15T00:12:19.725Z,984.90
2023-04-15T00:12:30.236Z,984.90
2023-04-15T00:12:40.841Z,984.90
2023-04-15T00:12:51.242Z,984.90
2023-04-15T00:13:01.792Z,984.90
2023-04-15T00:13:12.281Z,984.90
2023-04-15T00:13:22.766Z,984.90
2023-04-15T00:13:33.301Z,984.89
2023-04-15T00:13:43.778Z,984.89
2023-04-15T00:13:54.289Z,984.89
2023-04-15T00:14:04.784Z,984.89
2023-04-15T00:14:15.294Z,984.88
2023-04-15T00:14:25.845Z,984.88
2023-04-15T00:14:36.307Z,984.88
2023-04-15T00:14:46.829Z,984.88
2023-04-15T00:14:57.317Z,984.88
2023-04-15T00:15:07.838Z,984.88
2023-04-15T00:15:18.338Z,984.88
2023-04-15T00:15:28.841Z,984.88
2023-04-15T00:15:39.352Z,984.88
2023-04-15T00:15:49.863Z,984.88
2023-04-15T00:16:00.367Z,984.88
2023-04-15T00:16:10.960Z,984.89
2023-04-15T00:16:21.403Z,984.89
2023-04-15T00:16:31.965Z,984.89
2023-04-15T00:16:42.413Z,984.89
2023-04-15T00:16:52.933Z,984.89
2023-04-15T00:17:03.483Z,984.89
2023-04-15T00:17:13.925Z,984.89
2023-04-15T00:17:24.492Z,984.89
2023-04-15T00:17:35.013Z,984.90
2023-04-15T00:17:45.475Z,984.89
2023-04-15T00:17:55.978Z,984.89
2023-04-15T00:18:06.486Z,984.90
2023-04-15T00:18:16.978Z,984.89
2023-04-15T00:18:27.491Z,984.89
2023-04-15T00:18:37.998Z,984.89
2023-04-15T00:18:48.506Z,984.89
2023-04-15T00:18:59.321Z,984.89
2023-04-15T00:19:09.531Z,984.89
2023-04-15T00:19:20.035Z,984.90
2023-04-15T00:19:30.555Z,984.90
2023-04-15T00:19:41.044Z,984.89
2023-04-15T00:19:51.570Z,984.90
2023-04-15T00:20:02.066Z,984.89
2023-04-15T00:20:12.591Z,984.89
2023-04-15T00:20:23.082Z,984.88
2023-04-15T00:20:33.586Z,984.88
2023-04-15T00:20:44.091Z,984.89
2023-04-15T00:20:54.621Z,984.88
2023-04-15T00:21:05.107Z,984.88
2023-04-15T00:21:15.618Z,984.88
2023-04-15T00:21:26.144Z,984.88
2023-04-15T00:21:36.663Z,984.88
2023-04-15T00:21:47.165Z,984.88
2023-04-15T00:21:57.650Z,984.88
2023-04-15T00:22:08.154Z,984.88
2023-04-15T00:22:18.670Z,984.87
2023-04-15T00:22:29.175Z,984.87
2023-04-15T00:22:39.691Z,984.88
2023-04-15T00:22:50.187Z,984.88
2023-04-15T00:23:00.713Z,984.88
2023-04-15T00:23:11.218Z,984.87
2023-04-15T00:23:21.716Z,984.87
2023-04-15T00:23:32.290Z,984.87
2023-04-15T00:23:42.726Z,984.86
2023-04-15T00:23:53.233Z,984.86
2023-04-15T00:24:03.773Z,984.85
2023-04-15T00:24:14.248Z,984.86
2023-04-15T00:24:24.773Z,984.85
2023-04-15T00:24:35.272Z,984.85
2023-04-15T00:24:45.791Z,984.86
2023-04-15T00:24:56.318Z,984.85
2023-04-15T00:25:06.822Z,984.85
2023-04-15T00:25:17.308Z,984.84
2023-04-15T00:25:27.822Z,984.84
2023-04-15T00:25:38.326Z,984.84
2023-04-15T00:25:48.851Z,984.84
2023-04-15T00:25:59.354Z,984.84
2023-04-15T00:26:09.858Z,984.83
2023-04-15T00:26:20.366Z,984.83
2023-04-15T00:26:30.873Z,984.83
2023-04-15T00:26:41.385Z,984.83
2023-04-15T00:26:51.897Z,984.83
2023-04-15T00:27:02.418Z,984.83
2023-04-15T00:27:12.906Z,984.83
2023-04-15T00:27:23.422Z,984.83
2023-04-15T00:27:33.932Z,984.83
2023-04-15T00:27:44.431Z,984.82
2023-04-15T00:27:54.935Z,984.82
2023-04-15T00:28:05.446Z,984.82
2023-04-15T00:28:15.951Z,984.82
2023-04-15T00:28:26.485Z,984.82
2023-04-15T00:28:36.962Z,984.81
2023-04-15T00:28:47.480Z,984.81
2023-04-15T00:28:58.162Z,984.81
2023-04-15T00:29:08.502Z,984.81
2023-04-15T00:29:19.000Z,984.81
2023-04-15T00:29:29.540Z,984.80
2023-04-15T00:29:40.024Z,984.80
2023-04-15T00:29:50.553Z,984.80
2023-04-15T00:30:01.032Z,984.79
2023-04-15T00:30:11.558Z,984.79
2023-04-15T00:30:22.055Z,984.79
2023-04-15T00:30:32.631Z,984.79
2023-04-15T00:30:43.135Z,984.78
2023-04-15T00:30:53.634Z,984.78
2023-04-15T00:31:04.166Z,984.77
2023-04-15T00:31:14.631Z,984.77
2023-04-15T00:31:25.129Z,984.77
2023-04-15T00:31:35.605Z,984.77
2023-04-15T00:31:46.110Z,984.77
2023-04-15T00:31:56.635Z,984.77
2023-04-15T00:32:07.134Z,984.77
2023-04-15T00:32:17.666Z,984.77
2023-04-15T00:32:28.172Z,984.77
2023-04-15T00:32:38.683Z,984.77
2023-04-15T00:32:49.223Z,984.77
2023-04-15T00:32:59.742Z,984.77
2023-04-15T00:33:10.196Z,984.77
2023-04-15T00:33:20.679Z,984.77
2023-04-15T00:33:31.194Z,984.77
2023-04-15T00:33:41.697Z,984.78
2023-04-15T00:33:52.221Z,984.78
2023-04-15T00:34:02.718Z,984.78
2023-04-15T00:34:13.222Z,984.78
2023-04-15T00:34:23.725Z,984.78
2023-04-15T00:34:34.246Z,984.78
2023-04-15T00:34:44.748Z,984.78
2023-04-15T00:34:55.403Z,984.78
2023-04-15T00:35:05.753Z,984.78
2023-04-15T00:35:16.297Z,984.78
2023-04-15T00:35:26.779Z,984.78
2023-04-15T00:35:37.279Z,984.78
2023-04-15T00:35:47.791Z,984.78
2023-04-15T00:35:58.301Z,984.78
2023-04-15T00:36:08.804Z,984.77
2023-04-15T00:36:19.312Z,984.78
2023-04-15T00:36:29.820Z,984.77
2023-04-15T00:36:40.320Z,984.77
2023-04-15T00:36:50.826Z,984.77
2023-04-15T00:37:01.372Z,984.77
2023-04-15T00:37:11.982Z,984.77
2023-04-15T00:37:22.361Z,984.77
2023-04-15T00:37:32.859Z,984.78
2023-04-15T00:37:45.918Z,984.78
2023-04-15T00:37:53.888Z,984.77
2023-04-15T00:38:04.424Z,984.77
2023-04-15T00:38:14.886Z,984.77
2023-04-15T00:38:25.396Z,984.77
2023-04-15T00:38:35.903Z,984.77
2023-04-15T00:38:46.462Z,984.77
2023-04-15T00:38:56.937Z,984.77
2023-04-15T00:39:07.441Z,984.77
2023-04-15T00:39:17.931Z,984.77
2023-04-15T00:39:28.443Z,984.76
2023-04-15T00:39:38.957Z,984.77
2023-04-15T00:39:49.462Z,984.77
2023-04-15T00:39:59.989Z,984.76
2023-04-15T00:40:10.479Z,984.76
2023-04-15T00:40:21.004Z,984.76
2023-04-15T00:40:31.501Z,984.75
2023-04-15T00:40:42.015Z,984.75
2023-04-15T00:40:52.514Z,984.75
2023-04-15T00:41:03.030Z,984.75
2023-04-15T00:41:13.533Z,984.75
2023-04-15T00:41:24.069Z,984.74
2023-04-15T00:41:34.548Z,984.74
2023-04-15T00:41:45.049Z,984.74
2023-04-15T00:41:55.557Z,984.74
2023-04-15T00:42:06.066Z,984.74
2023-04-15T00:42:16.575Z,984.74
2023-04-15T00:42:27.082Z,984.74
2023-04-15T00:42:37.622Z,984.73
2023-04-15T00:42:48.099Z,984.73
2023-04-15T00:42:58.609Z,984.73
2023-04-15T00:43:09.120Z,984.73
2023-04-15T00:43:19.624Z,984.73
2023-04-15T00:43:30.127Z,984.73
2023-04-15T00:43:40.802Z,984.72
2023-04-15T00:43:51.149Z,984.72
2023-04-15T00:44:01.658Z,984.72
2023-04-15T00:44:12.156Z,984.72
2023-04-15T00:44:22.664Z,984.71
2023-04-15T00:44:33.178Z,984.71
2023-04-15T00:44:43.696Z,984.71
2023-04-15T00:44:54.233Z,984.71
2023-04-15T00:45:04.692Z,984.71
2023-04-15T00:45:15.216Z,984.71
2023-04-15T00:45:25.700Z,984.71
2023-04-15T00:45:36.236Z,984.71
2023-04-15T00:45:46.767Z,984.71
2023-04-15T00:45:57.274Z,984.71
2023-04-15T00:46:07.803Z,984.71
2023-04-15T00:46:18.344Z,984.71
2023-04-15T00:46:28.760Z,984.71
2023-04-15T00:46:39.253Z,984.71
2023-04-15T00:46:49.762Z,984.71
2023-04-15T00:47:00.265Z,984.71
2023-04-15T00:47:10.775Z,984.71
2023-04-15T00:47:21.282Z,984.71
2023-04-15T00:47:31.806Z,984.71
2023-04-15T00:47:42.350Z,984.71
2023-04-15T00:47:52.930Z,984.71
2023-04-15T00:48:03.387Z,984.71
2023-04-15T00:48:13.828Z,984.71
2023-04-15T00:48:24.359Z,984.72
2023-04-15T00:48:34.841Z,984.72
2023-04-15T00:48:45.348Z,984.72
2023-04-15T00:48:55.889Z,984.72
2023-04-15T00:49:06.355Z,984.72
2023-04-15T00:49:16.868Z,984.72
2023-04-15T00:49:27.376Z,984.73
2023-04-15T00:49:38.014Z,984.73
2023-04-15T00:49:48.389Z,984.73
2023-04-15T00:49:58.898Z,984.73
2023-04-15T00:50:09.398Z,984.74
2023-04-15T00:50:19.914Z,984.74
2023-04-15T00:50:30.414Z,984.74
2023-04-15T00:50:40.928Z,984.74
2023-04-15T00:50:51.432Z,984.74
2023-04-15T00:51:01.970Z,984.74
2023-04-15T00:51:12.449Z,984.74
2023-04-15T00:51:22.981Z,984.74
2023-04-15T00:51:33.463Z,984.74
2023-04-15T00:51:43.984Z,984.74
2023-04-15T00:51:54.478Z,984.74
2023-04-15T00:52:04.982Z,984.74
2023-04-15T00:52:15.491Z,984.74
2023-04-15T00:52:26.010Z,984.74
2023-04-15T00:52:36.513Z,984.74
2023-04-15T00:52:47.013Z,984.74
2023-04-15T00:52:57.562Z,984.73
2023-04-15T00:53:08.036Z,984.73
2023-04-15T00:53:18.570Z,984.73
2023-04-15T00:53:29.051Z,984.73
2023-04-15T00:53:39.605Z,984.72
2023-04-15T00:53:50.059Z,984.73
2023-04-15T00:54:00.693Z,984.72
2023-04-15T00:54:11.093Z,984.72
2023-04-15T00:54:21.580Z,984.72
2023-04-15T00:54:32.095Z,984.72
2023-04-15T00:54:42.591Z,984.71
2023-04-15T00:54:53.098Z,984.72
2023-04-15T00:55:03.606Z,984.72
2023-04-15T00:55:14.116Z,984.71
2023-04-15T00:55:24.620Z,984.71
2023-04-15T00:55:35.151Z,984.71
2023-04-15T00:55:45.639Z,984.71
2023-04-15T00:55:56.152Z,984.71
2023-04-15T00:56:06.774Z,984.71
2023-04-15T00:56:17.201Z,984.71
2023-04-15T00:56:27.667Z,984.71
2023-04-15T00:56:38.160Z,984.71
2023-04-15T00:56:48.681Z,984.71
2023-04-15T00:56:59.178Z,984.70
2023-04-15T00:57:09.701Z,984.71
2023-04-15T00:57:20.204Z,984.71
2023-04-15T00:57:30.702Z,984.71
2023-04-15T00:57:41.294Z,984.70
2023-04-15T00:57:51.752Z,984.70
2023-04-15T00:58:02.262Z,984.70
2023-04-15T00:58:12.752Z,984.70
2023-04-15T00:58:23.235Z,984.70
2023-04-15T00:58:33.788Z,984.70
2023-04-15T00:58:44.266Z,984.70
2023-04-15T00:58:54.758Z,984.70
2023-04-15T00:59:05.275Z,984.70
2023-04-15T00:59:15.773Z,984.70
2023-04-15T00:59:26.279Z,984.70
2023-04-15T00:59:36.786Z,984.69
2023-04-15T00:59:47.289Z,984.69
2023-04-15T00:59:57.801Z,984.70
2023-04-15T01:00:08.306Z,984.69
2023-04-15T01:00:18.828Z,984.69
2023-04-15T01:00:29.354Z,984.69
2023-04-15T01:00:39.833Z,984.69
2023-04-15T01:00:50.336Z,984.69
2023-04-15T01:01:00.850Z,984.69
2023-04-15T01:01:11.698Z,984.69
2023-04-15T01:01:21.888Z,984.69
2023-04-15T01:01:32.380Z,984.69
2023-04-15T01:01:42.901Z,984.69
2023-04-15T01:01:53.512Z,984.70
2023-04-15T01:02:04.053Z,984.70
2023-04-15T01:02:14.501Z,984.70
2023-04-15T01:02:25.042Z,984.70
2023-04-15T01:02:35.535Z,984.70
2023-04-15T01:02:46.031Z,984.70
2023-04-15T01:02:56.612Z,984.70
2023-04-15T01:03:07.038Z,984.71
2023-04-15T01:03:17.560Z,984.71
2023-04-15T01:03:28.125Z,984.71
2023-04-15T01:03:38.843Z,984.71
2023-04-15T01:03:49.104Z,984.71
2023-04-15T01:03:59.540Z,984.71
2023-04-15T01:04:10.053Z,984.71
2023-04-15T01:04:20.556Z,984.72
2023-04-15T01:04:31.086Z,984.71
2023-04-15T01:04:41.499Z,984.72
2023-04-15T01:04:52.014Z,984.72
2023-04-15T01:05:02.529Z,984.72
2023-04-15T01:05:13.030Z,984.72
2023-04-15T01:05:23.542Z,984.72
2023-04-15T01:05:34.042Z,984.72
2023-04-15T01:05:44.549Z,984.72
2023-04-15T01:05:55.060Z,984.72
2023-04-15T01:06:05.562Z,984.71
2023-04-15T01:06:16.066Z,984.72
2023-04-15T01:06:26.572Z,984.71
2023-04-15T01:06:37.085Z,984.71
2023-04-15T01:06:47.592Z,984.71
2023-04-15T01:06:58.094Z,984.71
2023-04-15T01:07:08.598Z,984.71
2023-04-15T01:07:19.103Z,984.71
2023-04-15T01:07:29.621Z,984.71
2023-04-15T01:07:40.155Z,984.71
2023-04-15T01:07:50.902Z,984.71
2023-04-15T01:08:01.136Z,984.71
2023-04-15T01:08:11.644Z,984.71
2023-04-15T01:08:22.154Z,984.71
2023-04-15T01:08:32.700Z,984.71
2023-04-15T01:08:43.168Z,984.71
2023-04-15T01:08:53.674Z,984.71
2023-04-15T01:09:04.214Z,984.71
2023-04-15T01:09:14.715Z,984.71
2023-04-15T01:09:25.198Z,984.71
2023-04-15T01:09:35.716Z,984.71
2023-04-15T01:09:46.223Z,984.71
2023-04-15T01:09:56.815Z,984.71
2023-04-15T01:10:07.237Z,984.71
2023-04-15T01:10:17.744Z,984.71
2023-04-15T01:10:28.338Z,984.71
2023-04-15T01:10:38.752Z,984.71
2023-04-15T01:10:49.265Z,984.71
2023-04-15T01:10:59.772Z,984.72
2023-04-15T01:11:10.270Z,984.72
2023-04-15T01:11:20.783Z,984.72
2023-04-15T01:11:31.286Z,984.72
2023-04-15T01:11:41.799Z,984.72
2023-04-15T01:11:52.349Z,984.72
2023-04-15T01:12:02.825Z,984.72
2023-04-15T01:12:13.316Z,984.72
2023-04-15T01:12:23.845Z,984.72
2023-04-15T01:12:34.370Z,984.72
2023-04-15T01:12:44.846Z,984.72
2023-04-15T01:12:55.354Z,984.73
2023-04-15T01:13:05.855Z,984.72
2023-04-15T01:13:16.362Z,984.73
2023-04-15T01:13:26.886Z,984.73
2023-04-15T01:13:37.416Z,984.73
2023-04-15T01:13:47.903Z,984.73
2023-04-15T01:13:58.437Z,984.74
2023-04-15T01:14:08.906Z,984.74
2023-04-15T01:14:19.405Z,984.74
2023-04-15T01:14:29.923Z,984.74
2023-04-15T01:14:40.435Z,984.75
2023-04-15T01:14:50.933Z,984.75
2023-04-15T01:15:01.444Z,984.75
2023-04-15T01:15:11.959Z,984.75
2023-04-15T01:15:22.485Z,984.75
2023-04-15T01:15:33.001Z,984.75
2023-04-15T01:15:43.517Z,984.76
2023-04-15T01:15:53.998Z,984.76
2023-04-15T01:16:04.516Z,984.76
2023-04-15T01:16:15.032Z,984.76
2023-04-15T01:16:25.590Z,984.76
2023-04-15T01:16:36.054Z,984.76
2023-04-15T01:16:46.517Z,984.76
2023-04-15T01:16:57.027Z,984.76
2023-04-15T01:17:07.532Z,984.76
2023-04-15T01:17:18.042Z,984.76
2023-04-15T01:17:28.696Z,984.76
2023-04-15T01:17:39.092Z,984.76
2023-04-15T01:17:49.649Z,984.76
2023-04-15T01:18:00.261Z,984.76
2023-04-15T01:18:10.582Z,984.76
2023-04-15T01:18:21.092Z,984.76
2023-04-15T01:18:31.604Z,984.75
2023-04-15T01:18:42.119Z,984.75
2023-04-15T01:18:52.610Z,984.75
2023-04-15T01:19:03.400Z,984.75
2023-04-15T01:19:13.612Z,984.75
2023-04-15T01:19:24.130Z,984.74
2023-04-15T01:19:34.645Z,984.74
2023-04-15T01:19:45.152Z,984.74
2023-04-15T01:19:55.656Z,984.74
2023-04-15T01:20:06.175Z,984.74
2023-04-15T01:20:16.757Z,984.74
2023-04-15T01:20:27.187Z,984.74
2023-04-15T01:20:37.698Z,984.73
2023-04-15T01:20:48.204Z,984.73
2023-04-15T01:20:58.715Z,984.73
2023-04-15T01:21:09.280Z,984.73
2023-04-15T01:21:19.726Z,984.73
2023-04-15T01:21:30.249Z,984.72
2023-04-15T01:21:40.740Z,984.72
2023-04-15T01:21:51.247Z,984.72
2023-04-15T01:22:01.774Z,984.72
2023-04-15T01:22:12.268Z,984.72
2023-04-15T01:22:22.771Z,984.72
2023-04-15T01:22:33.288Z,984.72
2023-04-15T01:22:43.791Z,984.72
2023-04-15T01:22:54.302Z,984.72
2023-04-15T01:23:04.804Z,984.72
2023-04-15T01:23:15.313Z,984.72
2023-04-15T01:23:25.824Z,984.72
2023-04-15T01:23:36.328Z,984.72
2023-04-15T01:23:46.851Z,984.72
2023-04-15T01:23:57.360Z,984.72
2023-04-15T01:24:07.873Z,984.72
2023-04-15T01:24:18.389Z,984.72
2023-04-15T01:24:28.891Z,984.71
2023-04-15T01:24:39.378Z,984.72
2023-04-15T01:24:49.894Z,984.72
2023-04-15T01:25:00.397Z,984.72
2023-04-15T01:25:10.918Z,984.72
2023-04-15T01:25:21.410Z,984.72
2023-04-15T01:25:31.930Z,984.72
2023-04-15T01:25:42.426Z,984.72
2023-04-15T01:25:52.928Z,984.72
2023-04-15T01:26:03.448Z,984.72
2023-04-15T01:26:13.965Z,984.72
2023-04-15T01:26:24.510Z,984.72
2023-04-15T01:26:34.987Z,984.72
2023-04-15T01:26:45.472Z,984.72
2023-04-15T01:26:55.986Z,984.71
2023-04-15T01:27:06.497Z,984.71
2023-04-15T01:27:16.998Z,984.71
2023-04-15T01:27:27.506Z,984.71
2023-04-15T01:27:38.010Z,984.71
2023-04-15T01:27:48.552Z,984.71
2023-04-15T01:27:59.033Z,984.70
2023-04-15T01:28:09.545Z,984.70
2023-04-15T01:28:20.054Z,984.70
2023-04-15T01:28:30.565Z,984.70
2023-04-15T01:28:41.067Z,984.70
2023-04-15T01:28:51.673Z,984.70
2023-04-15T01:29:02.285Z,984.69
2023-04-15T01:29:12.597Z,984.69
2023-04-15T01:29:23.104Z,984.69
2023-04-15T01:29:33.622Z,984.69
2023-04-15T01:29:44.119Z,984.69
2023-04-15T01:29:54.633Z,984.69
2023-04-15T01:30:05.137Z,984.69
2023-04-15T01:30:15.650Z,984.68
2023-04-15T01:30:26.160Z,984.68
2023-04-15T01:30:36.676Z,984.68
2023-04-15T01:30:47.170Z,984.68
2023-04-15T01:30:57.693Z,984.68
2023-04-15T01:31:08.200Z,984.68
2023-04-15T01:31:18.720Z,984.68
2023-04-15T01:31:29.275Z,984.68
2023-04-15T01:31:39.754Z,984.68
2023-04-15T01:31:50.267Z,984.68
2023-04-15T01:32:00.759Z,984.67
2023-04-15T01:32:11.238Z,984.67
2023-04-15T01:32:21.794Z,984.67
2023-04-15T01:32:32.287Z,984.67
2023-04-15T01:32:42.807Z,984.67
2023-04-15T01:32:53.314Z,984.67
2023-04-15T01:33:03.823Z,984.67
2023-04-15T01:33:14.289Z,984.67
2023-04-15T01:33:24.818Z,984.66
2023-04-15T01:33:35.313Z,984.66
2023-04-15T01:33:45.820Z,984.66
2023-04-15T01:33:56.333Z,984.66
2023-04-15T01:34:06.844Z,984.66
2023-04-15T01:34:17.463Z,984.66
2023-04-15T01:34:27.874Z,984.66
2023-04-15T01:34:38.367Z,984.66
2023-04-15T01:34:48.874Z,984.66
2023-04-15T01:34:59.374Z,984.65
2023-04-15T01:35:09.891Z,984.65
2023-04-15T01:35:20.400Z,984.65
2023-04-15T01:35:30.912Z,984.65
2023-04-15T01:35:41.414Z,984.65
2023-04-15T01:35:51.917Z,984.65
2023-04-15T01:36:02.434Z,984.65
2023-04-15T01:36:12.938Z,984.65
2023-04-15T01:36:23.447Z,984.65
2023-04-15T01:36:33.953Z,984.65
2023-04-15T01:36:44.458Z,984.65
2023-04-15T01:36:54.964Z,984.65
2023-04-15T01:37:05.473Z,984.65
2023-04-15T01:37:15.988Z,984.65
2023-04-15T01:37:26.500Z,984.65
2023-04-15T01:37:37.002Z,984.65
2023-04-15T01:37:47.505Z,984.65
2023-04-15T01:37:58.024Z,984.65
2023-04-15T01:38:08.537Z,984.65
2023-04-15T01:38:19.032Z,984.65
2023-04-15T01:38:29.535Z,984.65
2023-04-15T01:38:40.051Z,984.65
2023-04-15T01:38:50.555Z,984.65
2023-04-15T01:39:01.387Z,984.65
2023-04-15T01:39:11.672Z,984.64
2023-04-15T01:39:22.145Z,984.64
2023-04-15T01:39:32.589Z,984.64
2023-04-15T01:39:43.096Z,984.64
2023-04-15T01:39:53.606Z,984.64
2023-04-15T01:40:04.141Z,984.63
2023-04-15T01:40:14.619Z,984.64
2023-04-15T01:40:25.143Z,984.63
2023-04-15T01:40:35.652Z,984.63
2023-04-15T01:40:46.154Z,984.63
2023-04-15T01:40:56.653Z,984.62
2023-04-15T01:41:07.162Z,984.62
2023-04-15T01:41:17.682Z,984.62
2023-04-15T01:41:28.234Z,984.62
2023-04-15T01:41:38.693Z,984.62
2023-04-15T01:41:49.210Z,984.62
2023-04-15T01:41:59.714Z,984.61
2023-04-15T01:42:10.249Z,984.61
2023-04-15T01:42:20.727Z,984.60
2023-04-15T01:42:31.236Z,984.60
2023-04-15T01:42:41.760Z,984.60
2023-04-15T01:42:52.305Z,984.60
2023-04-15T01:43:02.750Z,984.59
2023-04-15T01:43:13.274Z,984.59
2023-04-15T01:43:23.768Z,984.59
2023-04-15T01:43:34.273Z,984.60
2023-04-15T01:43:44.795Z,984.59
2023-04-15T01:43:55.296Z,984.59
2023-04-15T01:44:05.794Z,984.59
2023-04-15T01:44:16.309Z,984.59
2023-04-15T01:44:26.840Z,984.60
2023-04-15T01:44:37.358Z,984.59
2023-04-15T01:44:47.833Z,984.59
2023-04-15T01:44:58.354Z,984.59
2023-04-15T01:45:08.850Z,984.59
2023-04-15T01:45:19.375Z,984.59
2023-04-15T01:45:29.870Z,984.59
2023-04-15T01:45:40.377Z,984.59
2023-04-15T01:45:50.886Z,984.59
2023-04-15T01:46:01.398Z,984.59
2023-04-15T01:46:11.902Z,984.59
2023-04-15T01:46:22.418Z,984.60
2023-04-15T01:46:32.930Z,984.60
2023-04-15T01:46:43.580Z,984.60
2023-04-15T01:46:53.968Z,984.60
2023-04-15T01:47:04.541Z,984.60
2023-04-15T01:47:14.955Z,984.61
2023-04-15T01:47:25.475Z,984.60
2023-04-15T01:47:36.032Z,984.61
2023-04-15T01:47:46.541Z,984.61
2023-04-15T01:47:57.053Z,984.61
2023-04-15T01:48:07.533Z,984.62
2023-04-15T01:48:18.008Z,984.61
2023-04-15T01:48:28.517Z,984.62
2023-04-15T01:48:39.034Z,984.62
2023-04-15T01:48:49.536Z,984.62
2023-04-15T01:49:00.310Z,984.63
2023-04-15T01:49:10.557Z,984.63
2023-04-15T01:49:21.062Z,984.63
2023-04-15T01:49:31.593Z,984.63
2023-04-15T01:49:42.081Z,984.63
2023-04-15T01:49:52.633Z,984.63
2023-04-15T01:50:03.185Z,984.63
2023-04-15T01:50:13.600Z,984.63
2023-04-15T01:50:24.115Z,984.63
2023-04-15T01:50:34.629Z,984.63
2023-04-15T01:50:45.123Z,984.63
2023-04-15T01:50:55.643Z,984.63
2023-04-15T01:51:06.150Z,984.63
2023-04-15T01:51:16.642Z,984.63
2023-04-15T01:51:27.151Z,984.63
2023-04-15T01:51:37.656Z,984.63
2023-04-15T01:51:48.165Z,984.63
2023-04-15T01:51:58.695Z,984.62
2023-04-15T01:52:09.181Z,984.62
2023-04-15T01:52:19.693Z,984.62
2023-04-15T01:52:30.196Z,984.62
2023-04-15T01:52:40.723Z,984.62
2023-04-15T01:52:51.223Z,984.61
2023-04-15T01:53:01.729Z,984.61
2023-04-15T01:53:12.249Z,984.61
2023-04-15T01:53:22.741Z,984.61
2023-04-15T01:53:33.247Z,984.60
2023-04-15T01:53:43.762Z,984.60
2023-04-15T01:53:54.269Z,984.60
2023-04-15T01:54:04.788Z,984.60
2023-04-15T01:54:15.290Z,984.60
2023-04-15T01:54:25.820Z,984.60
2023-04-15T01:54:36.302Z,984.60
2023-04-15T01:54:46.818Z,984.59
2023-04-15T01:54:57.356Z,984.59
2023-04-15T01:55:07.833Z,984.60
2023-04-15T01:55:18.354Z,984.59
2023-04-15T01:55:28.865Z,984.59
2023-04-15T01:55:39.355Z,984.59
2023-04-15T01:55:49.876Z,984.59
2023-04-15T01:56:00.384Z,984.59
2023-04-15T01:56:10.906Z,984.59
2023-04-15T01:56:21.394Z,984.59
2023-04-15T01:56:31.901Z,984.59
2023-04-15T01:56:42.445Z,984.59
2023-04-15T01:56:52.948Z,984.59
2023-04-15T01:57:03.437Z,984.59
2023-04-15T01:57:13.944Z,984.59
2023-04-15T01:57:24.458Z,984.59
2023-04-15T01:57:34.957Z,984.59
2023-04-15T01:57:45.469Z,984.59
2023-04-15T01:57:55.975Z,984.59
2023-04-15T01:58:06.535Z,984.59
2023-04-15T01:58:16.996Z,984.59
2023-04-15T01:58:27.508Z,984.59
2023-04-15T01:58:38.039Z,984.59
2023-04-15T01:58:48.562Z,984.60
2023-04-15T01:58:59.258Z,984.59
2023-04-15T01:59:09.535Z,984.59
2023-04-15T01:59:20.051Z,984.59
2023-04-15T01:59:30.584Z,984.59
2023-04-15T01:59:41.077Z,984.60
2023-04-15T01:59:51.582Z,984.60
2023-04-15T02:00:02.110Z,984.60
2023-04-15T02:00:12.588Z,984.60
2023-04-15T02:00:23.135Z,984.60
2023-04-15T02:00:33.610Z,984.60
2023-04-15T02:00:44.216Z,984.60
2023-04-15T02:00:54.724Z,984.60
2023-04-15T02:01:05.203Z,984.60
2023-04-15T02:01:15.652Z,984.60
2023-04-15T02:01:26.328Z,984.60
2023-04-15T02:01:36.653Z,984.60
2023-04-15T02:01:47.332Z,984.60
2023-04-15T02:01:57.724Z,984.59
2023-04-15T02:02:08.262Z,984.59
2023-04-15T02:02:18.751Z,984.59
2023-04-15T02:02:29.305Z,984.59
2023-04-15T02:02:40.044Z,984.59
2023-04-15T02:02:50.247Z,984.59
2023-04-15T02:03:00.784Z,984.59
2023-04-15T02:03:11.299Z,984.58
2023-04-15T02:03:21.965Z,984.58
2023-04-15T02:03:32.335Z,984.58
2023-04-15T02:03:42.933Z,984.58
2023-04-15T02:03:53.297Z,984.58
2023-04-15T02:04:03.849Z,984.58
2023-04-15T02:04:14.292Z,984.58
2023-04-15T02:04:24.777Z,984.58
2023-04-15T02:04:35.305Z,984.56
2023-04-15T02:04:45.798Z,984.57
2023-04-15T02:04:56.307Z,984.57
2023-04-15T02:05:06.822Z,984.57
2023-04-15T02:05:17.321Z,984.57
2023-04-15T02:05:27.879Z,984.57
2023-04-15T02:05:38.339Z,984.57
2023-04-15T02:05:48.846Z,984.56
2023-04-15T02:05:59.352Z,984.56
2023-04-15T02:06:09.861Z,984.56
2023-04-15T02:06:20.369Z,984.56
2023-04-15T02:06:30.877Z,984.56
2023-04-15T02:06:41.391Z,984.56
2023-04-15T02:06:51.889Z,984.56
2023-04-15T02:07:02.421Z,984.57
2023-04-15T02:07:12.927Z,984.56
2023-04-15T02:07:23.424Z,984.56
2023-04-15T02:07:33.928Z,984.56
2023-04-15T02:07:44.430Z,984.56
2023-04-15T02:07:54.936Z,984.56
2023-04-15T02:08:05.445Z,984.56
2023-04-15T02:08:15.949Z,984.56
2023-04-15T02:08:26.462Z,984.56
2023-04-15T02:08:36.966Z,984.57
2023-04-15T02:08:47.467Z,984.56
2023-04-15T02:08:57.991Z,984.56
2023-04-15T02:09:08.487Z,984.56
2023-04-15T02:09:18.991Z,984.56
2023-04-15T02:09:29.518Z,984.56
2023-04-15T02:09:40.004Z,984.56
2023-04-15T02:09:50.509Z,984.57
2023-04-15T02:10:01.025Z,984.56
2023-04-15T02:10:11.530Z,984.57
2023-04-15T02:10:22.037Z,984.57
2023-04-15T02:10:32.846Z,984.58
2023-04-15T02:10:43.052Z,984.58
2023-04-15T02:10:53.558Z,984.58
2023-04-15T02:11:04.065Z,984.58